Decoded Metar for EIKN (CONNAUGHT in IRELAND) (IATA:NOC) | Meteo·Mobile Aviation Weather
aviador You're here:

EIKN Decoded Metar

CONNAUGHT in IRELAND
Report Time2018-12-11 08:30:00
UTC Time2018-12-11 09:00:21
Flight Rules lifr LIFR
Wind140° at 09 kt
W.Decomp.*RWY 09: 5.0 kt HW 7.5 kt RCW
W.Rank140° ranks 15
Current wind is above 140° avg. (8.5)
Visibility1200 m
Phenomena:Mist
Clouds:N/A
Ceiling200 ft
Temp07°C (ISA -8)
Dew Point07°C (100% RH)
AAT3.1°C
QNH1015 hPa
Density Alt-633 ft
Elevation210 ft
Report Wrong Elevation
Raw Report
EIKN 110830Z 14009KT 110V180 1200 R26/1400 BR VV002 07/07 Q1015
BECMG 2000=

Extra information for EIKN:More info

Metar Taf Metar & Taf Last 4 Metars F.Rules Stats Wind Profile Meteogram Temp Stats Airport Information Weather charts Add Link Nearby VenuesMetar ALERT Operation Metar Decoded Social comments